Terminal Aerodrome Forecast
Issued by NWS

Current Version | Previous Version | Text Only | Print | Product List | Glossary On
Versions: 1 2 3 4 5 6 7 8 9 10 11 12 13 14 15 16 17 18 19 20 21 22 23 24 25 26 27 28 29
000
FTUS41 KPBZ 281317 AAA
TAFHLG
TAF AMD
KHLG 281317Z 2813/2912 12005KT P6SM OVC015
     FM281500 18006KT P6SM OVC015
      TEMPO 2815/2816 2SM -TSRA OVC015CB
     FM281900 21010KT P6SM VCTS BKN035CB
     FM282300 20010KT 5SM -SHRA VCTS OVC035CB
     FM290300 21010KT 5SM -SHRA OVC035
     FM290600 25010KT P6SM VCSH BKN020=

USA.gov is the U.S. government's official web portal to all federal, state and local government web resources and services.